createdAt,value
2017-12-06T00:00:48.508Z,74.34
2017-12-06T00:03:15.974Z,74.19
2017-12-06T00:05:43.421Z,74.11
2017-12-06T00:08:10.944Z,74.09
2017-12-06T00:10:38.453Z,73.97
2017-12-06T00:13:11.707Z,73.98
2017-12-06T00:15:43.017Z,74.17
2017-12-06T00:18:10.535Z,74.21
2017-12-06T00:20:52.400Z,74.20
2017-12-06T00:23:20.810Z,74.37
2017-12-06T00:25:49.248Z,74.65
2017-12-06T00:28:16.713Z,74.39
2017-12-06T00:30:44.218Z,74.55
2017-12-06T00:33:11.692Z,74.37
2017-12-06T00:35:39.225Z,74.32
2017-12-06T00:38:07.089Z,74.51
2017-12-06T00:40:34.580Z,74.48
2017-12-06T00:43:02.057Z,74.63
2017-12-06T00:45:29.562Z,74.58
2017-12-06T00:47:57.038Z,74.59
2017-12-06T00:50:24.784Z,74.85
2017-12-06T00:52:52.288Z,74.69
2017-12-06T00:55:19.715Z,74.59
2017-12-06T00:57:47.223Z,74.36
2017-12-06T01:00:14.661Z,74.60
2017-12-06T01:02:42.131Z,74.32
2017-12-06T01:05:09.577Z,74.42
2017-12-06T01:07:37.154Z,74.42
2017-12-06T01:10:04.628Z,74.65
2017-12-06T01:12:32.138Z,74.79
2017-12-06T01:14:59.638Z,74.74
2017-12-06T01:17:27.114Z,74.62
2017-12-06T01:19:54.566Z,74.86
2017-12-06T01:22:22.017Z,75.01
2017-12-06T01:24:49.500Z,75.11
2017-12-06T01:27:17.033Z,74.96
2017-12-06T01:29:44.543Z,75.24
2017-12-06T01:32:12.031Z,75.02
2017-12-06T01:34:39.474Z,75.01
2017-12-06T01:37:06.927Z,75.18
2017-12-06T01:39:34.424Z,74.87
2017-12-06T01:42:01.933Z,74.75
2017-12-06T01:44:29.383Z,74.93
2017-12-06T01:46:56.902Z,74.60
2017-12-06T01:49:24.364Z,74.58
2017-12-06T01:51:51.879Z,74.51
2017-12-06T01:54:19.341Z,74.43
2017-12-06T01:56:46.802Z,74.71
2017-12-06T01:59:14.240Z,74.33
2017-12-06T02:01:41.772Z,74.27
2017-12-06T02:04:09.252Z,74.10
2017-12-06T02:06:36.714Z,74.09
2017-12-06T02:09:04.256Z,74.25
2017-12-06T02:11:31.749Z,74.54
2017-12-06T02:13:59.188Z,74.24
2017-12-06T02:16:26.713Z,74.19
2017-12-06T02:18:54.184Z,74.14
2017-12-06T02:21:21.632Z,74.21
2017-12-06T02:23:49.116Z,74.41
2017-12-06T02:26:16.612Z,74.36
2017-12-06T02:28:44.073Z,74.33
2017-12-06T02:31:11.529Z,74.70
2017-12-06T02:33:39.238Z,74.89
2017-12-06T02:36:06.773Z,75.06
2017-12-06T02:38:34.967Z,74.93
2017-12-06T02:41:14.579Z,75.13
2017-12-06T02:46:45.683Z,74.69
2017-12-06T02:49:14.971Z,74.78
2017-12-06T02:51:42.484Z,74.77
2017-12-06T02:54:10.011Z,74.61
2017-12-06T02:56:37.518Z,74.55
2017-12-06T02:59:05.001Z,74.66
2017-12-06T03:01:32.663Z,74.65
2017-12-06T03:04:00.171Z,74.61
2017-12-06T03:06:27.681Z,74.43
2017-12-06T03:08:55.751Z,74.16
2017-12-06T03:11:23.210Z,74.44
2017-12-06T03:13:50.723Z,74.25
2017-12-06T03:16:18.177Z,74.48
2017-12-06T03:18:45.640Z,74.35
2017-12-06T03:21:13.101Z,74.30
2017-12-06T03:23:40.617Z,74.21
2017-12-06T03:26:08.240Z,74.50
2017-12-06T03:28:35.688Z,74.43
2017-12-06T03:31:03.252Z,74.65
2017-12-06T03:33:30.655Z,74.83
2017-12-06T03:35:58.119Z,74.88
2017-12-06T03:38:25.586Z,74.67
2017-12-06T03:40:53.034Z,74.71
2017-12-06T03:43:20.490Z,74.74
2017-12-06T03:45:47.940Z,74.57
2017-12-06T03:48:15.422Z,74.47
2017-12-06T03:50:43.128Z,74.39
2017-12-06T03:53:10.603Z,74.28
2017-12-06T03:55:38.345Z,74.13
2017-12-06T03:58:05.802Z,74.33
2017-12-06T04:00:33.372Z,74.23
2017-12-06T04:03:00.801Z,74.67
2017-12-06T04:05:28.328Z,74.23
2017-12-06T04:07:55.850Z,74.26
2017-12-06T04:10:23.311Z,74.45
2017-12-06T04:12:50.750Z,74.31
2017-12-06T04:15:18.265Z,74.35
2017-12-06T04:17:45.748Z,74.67
2017-12-06T04:20:18.248Z,74.61
2017-12-06T04:22:45.774Z,74.34
2017-12-06T04:25:13.266Z,74.18
2017-12-06T04:27:40.709Z,73.97
2017-12-06T04:30:08.166Z,74.05
2017-12-06T04:32:35.604Z,73.81
2017-12-06T04:35:03.191Z,73.83
2017-12-06T04:37:30.616Z,73.53
2017-12-06T04:39:58.798Z,73.52
2017-12-06T04:42:26.274Z,73.40
2017-12-06T04:44:53.747Z,72.84
2017-12-06T04:47:21.224Z,72.89
2017-12-06T04:49:48.680Z,72.93
2017-12-06T04:52:16.644Z,73.19
2017-12-06T04:54:44.110Z,72.68
2017-12-06T04:57:11.584Z,72.64
2017-12-06T04:59:39.097Z,72.37
2017-12-06T05:02:06.579Z,72.57
2017-12-06T05:04:34.066Z,72.93
2017-12-06T05:07:01.530Z,72.45
2017-12-06T05:09:29.018Z,72.50
2017-12-06T05:11:56.512Z,72.46
2017-12-06T05:14:24.851Z,72.73
2017-12-06T05:16:52.285Z,72.80
2017-12-06T05:19:19.746Z,72.94
2017-12-06T05:21:47.234Z,72.86
2017-12-06T05:24:14.685Z,72.74
2017-12-06T05:26:42.154Z,72.72
2017-12-06T05:29:09.674Z,72.59
2017-12-06T05:31:37.217Z,72.63
2017-12-06T05:34:04.932Z,72.66
2017-12-06T05:36:32.438Z,72.47
2017-12-06T05:38:59.933Z,72.65
2017-12-06T05:41:27.373Z,72.52
2017-12-06T05:43:54.832Z,72.38
2017-12-06T05:46:22.367Z,72.21
2017-12-06T05:48:50.461Z,72.22
2017-12-06T05:51:18.001Z,72.33
2017-12-06T05:53:45.454Z,72.15
2017-12-06T05:56:12.961Z,72.15
2017-12-06T05:58:40.420Z,72.03
2017-12-06T06:01:07.907Z,72.23
2017-12-06T06:03:35.420Z,72.15
2017-12-06T06:06:02.948Z,71.93
2017-12-06T06:08:30.441Z,71.96
2017-12-06T06:10:57.978Z,72.20
2017-12-06T06:13:26.099Z,72.09
2017-12-06T06:15:53.512Z,72.19
2017-12-06T06:18:20.969Z,71.78
2017-12-06T06:20:48.466Z,71.78
2017-12-06T06:23:15.961Z,71.98
2017-12-06T06:25:43.428Z,71.83
2017-12-06T06:28:10.903Z,71.65
2017-12-06T06:30:38.380Z,71.42
2017-12-06T06:33:05.887Z,71.64
2017-12-06T06:35:33.353Z,71.70
2017-12-06T06:38:00.847Z,71.95
2017-12-06T06:40:28.284Z,71.75
2017-12-06T06:42:55.744Z,71.41
2017-12-06T06:45:23.212Z,71.49
2017-12-06T06:47:50.662Z,71.36
2017-12-06T06:50:18.186Z,71.19
2017-12-06T06:52:45.662Z,71.28
2017-12-06T06:55:13.229Z,71.22
2017-12-06T06:57:40.783Z,71.26
2017-12-06T07:00:08.309Z,71.15
2017-12-06T07:02:35.765Z,71.37
2017-12-06T07:05:03.222Z,71.43
2017-12-06T07:07:30.721Z,71.30
2017-12-06T07:09:58.279Z,71.24
2017-12-06T07:12:25.733Z,71.16
2017-12-06T07:14:53.182Z,71.21
2017-12-06T07:17:20.648Z,71.00
2017-12-06T07:19:49.940Z,71.10
2017-12-06T07:22:17.429Z,71.19
2017-12-06T07:24:44.947Z,71.07
2017-12-06T07:27:12.413Z,70.92
2017-12-06T07:29:39.918Z,70.94
2017-12-06T07:32:07.415Z,70.72
2017-12-06T07:34:34.938Z,70.88
2017-12-06T07:37:02.429Z,71.13
2017-12-06T07:39:29.931Z,71.14
2017-12-06T07:41:57.376Z,70.93
2017-12-06T07:44:24.871Z,70.97
2017-12-06T07:46:52.354Z,70.68
2017-12-06T07:49:19.835Z,70.43
2017-12-06T07:51:47.345Z,71.02
2017-12-06T07:54:14.884Z,71.04
2017-12-06T07:56:42.381Z,70.62
2017-12-06T07:59:09.908Z,70.75
2017-12-06T08:01:37.421Z,70.68
2017-12-06T08:04:04.871Z,70.71
2017-12-06T08:06:32.326Z,71.00
2017-12-06T08:09:00.548Z,70.90
2017-12-06T08:11:28.072Z,71.16
2017-12-06T08:13:55.546Z,71.02
2017-12-06T08:16:23.069Z,70.90
2017-12-06T08:18:50.580Z,70.77
2017-12-06T08:21:18.120Z,70.67
2017-12-06T08:23:45.581Z,70.74
2017-12-06T08:26:13.098Z,70.52
2017-12-06T08:28:40.639Z,70.41
2017-12-06T08:31:08.224Z,70.26
2017-12-06T08:33:36.618Z,70.45
2017-12-06T08:36:04.145Z,70.19
2017-12-06T08:38:31.630Z,70.44
2017-12-06T08:40:59.119Z,70.30
2017-12-06T08:43:26.969Z,70.46
2017-12-06T08:45:54.582Z,70.70
2017-12-06T08:48:25.968Z,70.25
2017-12-06T08:53:46.146Z,70.57
2017-12-06T08:56:13.725Z,70.42
2017-12-06T08:58:42.221Z,70.55
2017-12-06T09:01:09.974Z,70.23
2017-12-06T09:03:38.461Z,70.20
2017-12-06T09:06:06.005Z,70.01
2017-12-06T09:08:33.535Z,70.43
2017-12-06T09:11:01.070Z,70.39
2017-12-06T09:13:28.556Z,70.51
2017-12-06T09:15:56.039Z,70.40
2017-12-06T09:18:23.599Z,70.35
2017-12-06T09:20:51.119Z,69.96
2017-12-06T09:23:19.013Z,69.82
2017-12-06T09:25:46.556Z,69.88
2017-12-06T09:28:14.327Z,69.94
2017-12-06T09:30:44.662Z,69.88
2017-12-06T09:33:12.417Z,70.00
2017-12-06T09:35:45.381Z,70.17
2017-12-06T09:38:18.316Z,69.92
2017-12-06T09:40:46.868Z,70.04
2017-12-06T09:43:15.205Z,70.06
2017-12-06T09:45:42.682Z,70.11
2017-12-06T09:48:10.204Z,70.10
2017-12-06T09:50:37.654Z,70.42
2017-12-06T09:53:05.133Z,70.11
2017-12-06T09:55:32.656Z,70.02
2017-12-06T09:58:00.230Z,70.32
2017-12-06T10:00:27.747Z,70.25
2017-12-06T10:02:55.269Z,70.29
2017-12-06T10:05:23.743Z,70.08
2017-12-06T10:07:51.233Z,70.20
2017-12-06T10:10:38.914Z,69.86
2017-12-06T10:13:06.483Z,70.09
2017-12-06T10:15:34.044Z,70.04
2017-12-06T10:18:01.494Z,70.15
2017-12-06T10:23:22.114Z,69.71
2017-12-06T10:25:49.991Z,69.74
2017-12-06T10:28:17.450Z,69.82
2017-12-06T10:30:44.993Z,69.41
2017-12-06T10:33:12.586Z,69.72
2017-12-06T10:35:40.176Z,69.71
2017-12-06T10:38:07.657Z,69.52
2017-12-06T10:40:35.167Z,69.13
2017-12-06T10:43:02.703Z,69.55
2017-12-06T10:45:30.322Z,69.20
2017-12-06T10:47:57.792Z,69.24
2017-12-06T10:50:25.372Z,69.38
2017-12-06T10:52:52.850Z,69.26
2017-12-06T10:55:20.363Z,69.64
2017-12-06T10:57:47.890Z,69.42
2017-12-06T11:00:15.429Z,69.33
2017-12-06T11:02:43.750Z,69.21
2017-12-06T11:05:11.237Z,69.25
2017-12-06T11:07:41.230Z,69.25
2017-12-06T11:10:11.503Z,69.32
2017-12-06T11:12:39.029Z,69.42
2017-12-06T11:15:08.458Z,69.29
2017-12-06T11:17:36.173Z,69.19
2017-12-06T11:22:56.836Z,69.45
2017-12-06T11:25:24.422Z,69.29
2017-12-06T11:27:51.954Z,69.19
2017-12-06T11:30:19.438Z,69.40
2017-12-06T11:32:46.949Z,69.35
2017-12-06T11:35:15.328Z,69.36
2017-12-06T11:37:43.270Z,69.26
2017-12-06T11:40:11.509Z,69.34
2017-12-06T11:42:40.509Z,69.39
2017-12-06T11:45:08.065Z,69.36
2017-12-06T11:47:35.602Z,69.67
2017-12-06T11:50:04.011Z,69.77
2017-12-06T11:52:31.591Z,69.60
2017-12-06T11:54:59.063Z,69.78
2017-12-06T11:57:26.574Z,69.98
2017-12-06T12:00:03.768Z,70.00
2017-12-06T12:02:31.269Z,69.63
2017-12-06T12:04:58.878Z,69.71
2017-12-06T12:07:26.391Z,69.45
2017-12-06T12:10:08.234Z,69.55
2017-12-06T12:12:36.790Z,69.74
2017-12-06T12:15:04.372Z,69.35
2017-12-06T12:17:31.907Z,69.62
2017-12-06T12:19:59.432Z,69.66
2017-12-06T12:22:26.969Z,69.46
2017-12-06T12:24:54.464Z,69.66
2017-12-06T12:27:21.937Z,69.85
2017-12-06T12:29:49.392Z,70.01
2017-12-06T12:32:16.893Z,70.04
2017-12-06T12:34:44.356Z,70.02
2017-12-06T12:37:13.847Z,69.97
2017-12-06T12:39:41.400Z,70.02
2017-12-06T12:42:08.868Z,69.71
2017-12-06T12:44:36.378Z,69.82
2017-12-06T12:47:03.946Z,70.02
2017-12-06T12:49:31.471Z,70.33
2017-12-06T12:51:59.025Z,70.29
2017-12-06T12:54:26.576Z,70.44
2017-12-06T12:56:54.130Z,70.19
2017-12-06T12:59:22.252Z,70.33
2017-12-06T13:01:49.783Z,70.43
2017-12-06T13:04:17.279Z,70.27
2017-12-06T13:06:45.141Z,70.23
2017-12-06T13:09:12.658Z,70.15
2017-12-06T13:11:40.218Z,70.41
2017-12-06T13:14:11.236Z,70.31
2017-12-06T13:16:38.782Z,70.43
2017-12-06T13:19:06.286Z,70.32
2017-12-06T13:21:34.396Z,70.29
2017-12-06T13:24:01.933Z,70.65
2017-12-06T13:26:30.210Z,70.49
2017-12-06T13:28:58.563Z,70.56
2017-12-06T13:31:27.369Z,70.44
2017-12-06T13:33:55.237Z,70.35
2017-12-06T13:36:22.793Z,70.57
2017-12-06T13:38:50.410Z,70.57
2017-12-06T13:41:17.970Z,70.57
2017-12-06T13:43:45.422Z,70.43
2017-12-06T13:46:15.744Z,70.64
2017-12-06T13:48:43.258Z,70.53
2017-12-06T13:51:20.450Z,70.64
2017-12-06T13:53:47.999Z,70.69
2017-12-06T13:56:15.669Z,70.48
2017-12-06T13:58:43.263Z,70.66
2017-12-06T14:01:30.033Z,70.71
2017-12-06T14:03:57.493Z,70.86
2017-12-06T14:06:25.044Z,70.65
2017-12-06T14:08:52.756Z,70.73
2017-12-06T14:11:20.296Z,70.72
2017-12-06T14:13:47.791Z,70.84
2017-12-06T14:16:15.281Z,70.69
2017-12-06T14:18:42.745Z,71.01
2017-12-06T14:21:10.321Z,70.87
2017-12-06T14:23:41.079Z,70.82
2017-12-06T14:26:08.674Z,70.92
2017-12-06T14:28:36.160Z,70.92
2017-12-06T14:31:03.865Z,70.96
2017-12-06T14:33:31.882Z,70.87
2017-12-06T14:36:06.929Z,70.96
2017-12-06T14:38:34.471Z,71.08
2017-12-06T14:41:01.982Z,71.15
2017-12-06T14:43:29.611Z,71.08
2017-12-06T14:45:57.102Z,71.05
2017-12-06T14:48:24.621Z,71.12
2017-12-06T14:50:52.408Z,71.08
2017-12-06T14:53:19.903Z,71.13
2017-12-06T14:55:47.400Z,71.19
2017-12-06T14:58:15.076Z,71.20
2017-12-06T15:00:42.549Z,71.36
2017-12-06T15:03:10.020Z,71.39
2017-12-06T15:05:37.517Z,71.29
2017-12-06T15:08:05.070Z,71.01
2017-12-06T15:10:32.752Z,70.93
2017-12-06T15:13:00.590Z,70.96
2017-12-06T15:15:28.223Z,71.17
2017-12-06T15:17:55.720Z,70.98
2017-12-06T15:20:23.241Z,71.07
2017-12-06T15:22:50.744Z,71.24
2017-12-06T15:25:18.229Z,71.03
2017-12-06T15:27:45.744Z,71.08
2017-12-06T15:30:13.264Z,71.30
2017-12-06T15:32:43.637Z,71.29
2017-12-06T15:35:11.350Z,71.30
2017-12-06T15:37:38.834Z,71.22
2017-12-06T15:40:06.287Z,71.12
2017-12-06T15:42:33.841Z,70.85
2017-12-06T15:45:01.319Z,70.90
2017-12-06T15:47:28.837Z,71.10
2017-12-06T15:49:56.327Z,71.26
2017-12-06T15:52:23.911Z,71.23
2017-12-06T15:54:52.588Z,71.07
2017-12-06T15:57:20.074Z,71.28
2017-12-06T15:59:47.783Z,71.17
2017-12-06T16:04:48.291Z,70.96
2017-12-06T16:07:16.411Z,71.14
2017-12-06T16:09:44.220Z,71.02
2017-12-06T16:12:12.186Z,70.97
2017-12-06T16:14:40.032Z,71.05
2017-12-06T16:17:07.662Z,70.92
2017-12-06T16:19:35.162Z,70.99
2017-12-06T16:22:02.655Z,71.07
2017-12-06T16:24:30.199Z,71.21
2017-12-06T16:26:57.756Z,71.16
2017-12-06T16:29:25.253Z,71.20
2017-12-06T16:31:52.799Z,71.31
2017-12-06T16:34:20.381Z,71.10
2017-12-06T16:36:59.444Z,70.88
2017-12-06T16:39:26.903Z,70.92
2017-12-06T16:41:54.626Z,70.87
2017-12-06T16:44:22.360Z,70.85
2017-12-06T16:46:51.454Z,70.91
2017-12-06T16:49:19.047Z,70.82
2017-12-06T16:51:51.780Z,70.81
2017-12-06T16:54:19.358Z,70.90
2017-12-06T16:56:46.870Z,71.03
2017-12-06T16:59:14.453Z,71.17
2017-12-06T17:01:42.613Z,71.19
2017-12-06T17:04:10.208Z,71.15
2017-12-06T17:06:37.721Z,71.11
2017-12-06T17:09:05.334Z,71.01
2017-12-06T17:11:32.882Z,70.89
2017-12-06T17:14:00.382Z,71.05
2017-12-06T17:16:27.942Z,70.87
2017-12-06T17:18:56.434Z,70.93
2017-12-06T17:21:23.979Z,71.14
2017-12-06T17:23:51.863Z,71.25
2017-12-06T17:26:20.725Z,71.07
2017-12-06T17:29:00.163Z,71.11
2017-12-06T17:31:47.472Z,71.32
2017-12-06T17:34:14.961Z,71.18
2017-12-06T17:36:47.351Z,71.06
2017-12-06T17:39:14.948Z,70.94
2017-12-06T17:41:42.466Z,70.87
2017-12-06T17:44:09.997Z,70.89
2017-12-06T17:46:37.497Z,70.83
2017-12-06T17:49:05.041Z,70.86
2017-12-06T17:51:32.584Z,70.81
2017-12-06T17:54:00.100Z,70.53
2017-12-06T17:56:27.703Z,70.73
2017-12-06T17:58:55.261Z,70.48
2017-12-06T18:01:22.776Z,70.48
2017-12-06T18:03:50.301Z,70.78
2017-12-06T18:06:18.142Z,70.82
2017-12-06T18:08:45.854Z,70.69
2017-12-06T18:11:13.366Z,70.77
2017-12-06T18:13:40.877Z,70.65
2017-12-06T18:16:08.499Z,70.83
2017-12-06T18:18:35.983Z,70.79
2017-12-06T18:21:03.559Z,71.15
2017-12-06T18:23:31.160Z,71.24
2017-12-06T18:25:58.890Z,71.21
2017-12-06T18:28:26.474Z,70.90
2017-12-06T18:30:53.997Z,70.92
2017-12-06T18:33:21.509Z,70.87
2017-12-06T18:35:49.050Z,70.90
2017-12-06T18:38:16.614Z,70.82
2017-12-06T18:40:44.129Z,70.65
2017-12-06T18:43:11.693Z,70.42
2017-12-06T18:45:39.197Z,70.31
2017-12-06T18:48:06.904Z,70.15
2017-12-06T18:50:35.235Z,69.81
2017-12-06T18:53:02.803Z,69.88
2017-12-06T18:55:30.398Z,69.64
2017-12-06T18:57:58.136Z,69.68
2017-12-06T19:00:25.655Z,69.59
2017-12-06T19:02:53.179Z,69.52
2017-12-06T19:05:24.247Z,69.69
2017-12-06T19:07:52.536Z,69.61
2017-12-06T19:10:21.893Z,69.33
2017-12-06T19:12:49.576Z,69.33
2017-12-06T19:15:17.436Z,69.69
2017-12-06T19:17:45.075Z,69.45
2017-12-06T19:20:12.628Z,69.51
2017-12-06T19:22:40.753Z,69.39
2017-12-06T19:25:08.275Z,69.27
2017-12-06T19:27:35.876Z,69.32
2017-12-06T19:30:03.351Z,69.22
2017-12-06T19:32:30.865Z,69.39
2017-12-06T19:34:58.352Z,69.28
2017-12-06T19:37:25.852Z,69.33
2017-12-06T19:39:53.329Z,69.33
2017-12-06T19:42:21.701Z,69.42
2017-12-06T19:44:49.198Z,69.38
2017-12-06T19:47:16.753Z,69.15
2017-12-06T19:49:44.258Z,69.10
2017-12-06T19:52:12.004Z,69.26
2017-12-06T19:54:39.497Z,69.37
2017-12-06T19:57:07.013Z,69.21
2017-12-06T19:59:34.563Z,69.12
2017-12-06T20:02:02.111Z,69.17
2017-12-06T20:04:29.981Z,69.18
2017-12-06T20:06:57.842Z,68.81
2017-12-06T20:09:25.516Z,69.38
2017-12-06T20:11:52.990Z,69.25
2017-12-06T20:14:21.222Z,68.90
2017-12-06T20:16:48.753Z,68.49
2017-12-06T20:19:16.257Z,68.59
2017-12-06T20:21:48.674Z,68.57
2017-12-06T20:24:16.617Z,68.37
2017-12-06T20:26:44.086Z,68.21
2017-12-06T20:29:12.758Z,68.46
2017-12-06T20:31:43.061Z,68.17
2017-12-06T20:34:10.549Z,68.22
2017-12-06T20:36:39.006Z,68.42
2017-12-06T20:39:07.461Z,68.62
2017-12-06T20:41:35.016Z,68.71
2017-12-06T20:44:02.536Z,68.62
2017-12-06T20:46:30.049Z,68.66
2017-12-06T20:48:57.525Z,68.51
2017-12-06T20:51:25.054Z,68.71
2017-12-06T20:53:52.587Z,68.75
2017-12-06T20:56:20.091Z,68.94
2017-12-06T20:58:47.668Z,68.91
2017-12-06T21:01:20.122Z,68.87
2017-12-06T21:03:47.638Z,68.75
2017-12-06T21:06:15.179Z,68.71
2017-12-06T21:08:42.659Z,68.84
2017-12-06T21:11:10.204Z,69.06
2017-12-06T21:13:37.658Z,69.16
2017-12-06T21:16:05.167Z,69.13
2017-12-06T21:18:33.737Z,69.20
2017-12-06T21:21:01.319Z,69.27
2017-12-06T21:23:28.824Z,69.45
2017-12-06T21:25:56.564Z,69.50
2017-12-06T21:28:24.276Z,69.53
2017-12-06T21:30:51.749Z,69.17
2017-12-06T21:33:19.503Z,69.27
2017-12-06T21:35:47.160Z,69.22
2017-12-06T21:38:14.637Z,69.30
2017-12-06T21:40:42.152Z,69.51
2017-12-06T21:43:09.702Z,69.55
2017-12-06T21:45:37.899Z,69.69
2017-12-06T21:48:05.542Z,69.42
2017-12-06T21:50:33.047Z,69.52
2017-12-06T21:53:00.640Z,69.69
2017-12-06T21:55:29.144Z,69.73
2017-12-06T21:57:56.660Z,69.75
2017-12-06T22:00:24.251Z,69.58
2017-12-06T22:02:51.891Z,69.63
2017-12-06T22:05:19.714Z,69.57
2017-12-06T22:07:47.221Z,69.19
2017-12-06T22:10:14.712Z,69.03
2017-12-06T22:12:42.565Z,68.99
2017-12-06T22:15:10.039Z,69.33
2017-12-06T22:17:37.522Z,69.34
2017-12-06T22:20:05.014Z,69.15
2017-12-06T22:22:32.525Z,69.24
2017-12-06T22:25:00.029Z,68.99
2017-12-06T22:27:27.482Z,69.03
2017-12-06T22:29:55.278Z,68.98
2017-12-06T22:32:22.769Z,68.95
2017-12-06T22:34:50.291Z,68.92
2017-12-06T22:37:17.788Z,69.17
2017-12-06T22:39:45.310Z,69.08
2017-12-06T22:42:12.830Z,69.04
2017-12-06T22:44:40.273Z,69.30
2017-12-06T22:47:07.726Z,69.35
2017-12-06T22:49:36.056Z,69.44
2017-12-06T22:52:03.700Z,69.54
2017-12-06T22:54:31.165Z,69.63
2017-12-06T22:56:58.619Z,69.90
2017-12-06T22:59:26.078Z,70.00
2017-12-06T23:02:03.260Z,69.86
2017-12-06T23:04:30.995Z,69.43
2017-12-06T23:06:58.521Z,69.30
2017-12-06T23:09:26.035Z,69.08
2017-12-06T23:12:03.778Z,68.71
2017-12-06T23:14:31.402Z,68.29
2017-12-06T23:16:58.917Z,67.89
2017-12-06T23:19:26.414Z,67.78
2017-12-06T23:21:53.879Z,67.48
2017-12-06T23:24:21.366Z,67.69
2017-12-06T23:26:48.813Z,67.55
2017-12-06T23:29:16.261Z,67.34
2017-12-06T23:31:43.721Z,67.50
2017-12-06T23:34:11.195Z,67.70
2017-12-06T23:36:38.631Z,67.70
2017-12-06T23:39:06.097Z,67.72
2017-12-06T23:41:33.565Z,68.16
2017-12-06T23:44:01.008Z,68.03
2017-12-06T23:46:28.533Z,67.81
2017-12-06T23:48:55.999Z,67.71
2017-12-06T23:51:23.454Z,67.74
2017-12-06T23:53:50.935Z,68.07
2017-12-06T23:56:18.406Z,67.93
2017-12-06T23:58:45.905Z,68.29
